Time;durP1;ratioP1;P1;durP2;ratioP2;P2;SDS_P1;SDS_P2;PMS_P1;PMS_P2;Temp;Humidity;BMP_temperature;BMP_pressure;BME280_temperature;BME280_humidity;BME280_pressure;Samples;Min_cycle;Max_cycle;Signal;HPM_P1;HPM_P2
2023/04/23 00:05:01;;;;;;;9.20;6.30;;;;;;;14.01;60.37;99188.22;10413398;28;20504;-73
2023/04/23 00:10:07;;;;;;;7.10;6.28;;;;;;;14.03;60.46;99183.72;10413918;28;20046;-73
2023/04/23 00:15:10;;;;;;;7.20;6.43;;;;;;;14.02;60.49;99170.56;10412903;28;20484;-72
2023/04/23 00:20:11;;;;;;;6.47;5.85;;;;;;;14.20;59.85;99169.47;10412585;28;20471;-72
2023/04/23 00:25:13;;;;;;;7.85;5.60;;;;;;;14.09;59.79;99164.00;10414305;28;20096;-73
2023/04/23 00:30:17;;;;;;;6.97;5.82;;;;;;;13.94;60.99;99167.53;10415087;28;20057;-73
2023/04/23 00:35:19;;;;;;;5.70;4.90;;;;;;;14.01;60.12;99156.53;10414736;28;20049;-73
2023/04/23 00:40:22;;;;;;;6.35;5.40;;;;;;;13.93;60.64;99156.13;10412335;28;20447;-72
2023/04/23 00:45:24;;;;;;;5.45;4.95;;;;;;;13.68;61.64;99155.84;10410981;28;20402;-72
2023/04/23 00:50:26;;;;;;;5.32;4.72;;;;;;;13.75;61.19;99155.41;10411594;28;20456;-72
2023/04/23 00:55:28;;;;;;;5.60;5.10;;;;;;;13.56;62.04;99158.28;10411690;28;20061;-72
2023/04/23 01:00:30;;;;;;;5.93;4.22;;;;;;;13.45;63.23;99165.13;10410011;28;20056;-73
2023/04/23 01:05:31;;;;;;;5.07;4.57;;;;;;;13.38;63.25;99157.56;10411960;28;20403;-73
2023/04/23 01:10:33;;;;;;;6.18;4.88;;;;;;;13.28;63.80;99155.50;10411925;28;20041;-72
2023/04/23 01:15:35;;;;;;;4.90;4.40;;;;;;;13.39;63.93;99147.84;10411936;28;20061;-74
2023/04/23 01:20:38;;;;;;;6.80;4.75;;;;;;;13.33;64.32;99149.06;10407472;28;20060;-73
2023/04/23 01:25:39;;;;;;;10.10;4.35;;;;;;;13.50;63.50;99147.22;10405958;28;20148;-72
2023/04/23 01:30:43;;;;;;;5.35;4.88;;;;;;;13.25;64.51;99155.72;10407532;28;20059;-72
2023/04/23 01:35:46;;;;;;;5.35;4.18;;;;;;;13.10;65.53;99147.69;10408247;28;20060;-72
2023/04/23 01:40:48;;;;;;;4.95;4.43;;;;;;;13.04;66.92;99155.94;10410442;28;20079;-72
2023/04/23 01:45:50;;;;;;;5.38;4.85;;;;;;;13.09;69.31;99155.69;10408410;28;20117;-72
2023/04/23 01:50:52;;;;;;;9.70;6.07;;;;;;;12.90;72.33;99144.47;10408826;28;20041;-73
2023/04/23 01:55:55;;;;;;;8.10;5.60;;;;;;;12.75;73.20;99148.78;10409726;28;20458;-73
2023/04/23 02:00:57;;;;;;;5.88;5.10;;;;;;;12.63;74.40;99142.41;10408200;28;20045;-73
2023/04/23 02:05:59;;;;;;;6.80;6.10;;;;;;;12.69;76.55;99149.13;10409922;28;20561;-72
2023/04/23 02:11:01;;;;;;;5.85;5.32;;;;;;;12.45;76.99;99143.41;10406821;28;20084;-72
2023/04/23 02:16:03;;;;;;;6.45;5.28;;;;;;;12.37;76.92;99141.16;10406603;28;20117;-73
2023/04/23 02:21:05;;;;;;;6.22;5.50;;;;;;;12.22;76.85;99141.97;10407862;28;20112;-72
2023/04/23 02:26:07;;;;;;;6.63;5.40;;;;;;;12.20;79.23;99139.41;10407107;28;20453;-73
2023/04/23 02:31:09;;;;;;;6.28;5.72;;;;;;;12.43;74.73;99139.97;10405380;28;20053;-72
2023/04/23 02:36:13;;;;;;;5.68;5.00;;;;;;;12.15;76.53;99149.34;10408685;28;20421;-72
2023/04/23 02:41:14;;;;;;;6.63;4.82;;;;;;;12.01;78.22;99154.50;10413482;28;20092;-71
2023/04/23 02:46:16;;;;;;;5.32;4.82;;;;;;;12.01;78.29;99150.06;10412340;28;20144;-72
2023/04/23 02:51:18;;;;;;;5.88;4.63;;;;;;;12.07;78.76;99139.19;10414417;28;20121;-72
2023/04/23 02:56:20;;;;;;;6.22;5.13;;;;;;;12.26;79.21;99143.50;10414534;28;20413;-72
2023/04/23 03:01:21;;;;;;;8.05;5.15;;;;;;;12.17;79.38;99133.44;10413423;28;20060;-72
2023/04/23 03:06:24;;;;;;;5.03;4.53;;;;;;;12.02;80.20;99138.59;10414766;28;20192;-72
2023/04/23 03:11:26;;;;;;;6.18;4.93;;;;;;;12.01;80.26;99125.50;10413150;28;20072;-72
2023/04/23 03:16:30;;;;;;;5.18;4.72;;;;;;;12.18;81.69;99130.75;10412824;28;20048;-72
2023/04/23 03:21:31;;;;;;;5.20;4.70;;;;;;;12.06;81.84;99119.06;10412819;28;20099;-73
2023/04/23 03:26:33;;;;;;;6.60;5.05;;;;;;;12.39;80.12;99110.28;10414409;28;20096;-73
2023/04/23 03:31:35;;;;;;;8.43;6.00;;;;;;;12.35;79.79;99114.91;10412445;28;20076;-73
2023/04/23 03:36:38;;;;;;;4.70;4.10;;;;;;;12.33;80.75;99094.81;10411974;28;20538;-73
2023/04/23 03:41:41;;;;;;;7.88;5.28;;;;;;;12.67;79.16;99088.56;10412918;28;20049;-71
2023/04/23 03:46:45;;;;;;;5.60;5.10;;;;;;;12.68;80.26;99084.13;10412551;28;20196;-72
2023/04/23 03:51:49;;;;;;;6.60;5.07;;;;;;;12.73;80.02;99090.00;10412420;28;20125;-72
2023/04/23 03:56:53;;;;;;;7.90;5.60;;;;;;;12.50;80.15;99091.28;10413505;28;20410;-72
2023/04/23 04:02:03;;;;;;;6.95;5.38;;;;;;;12.79;78.43;99095.81;10413058;28;20045;-73
2023/04/23 04:07:06;;;;;;;11.05;5.47;;;;;;;12.78;77.36;99095.88;10417051;28;20123;-72
2023/04/23 04:12:08;;;;;;;5.03;4.63;;;;;;;13.08;73.38;99093.31;10414617;28;20045;-73
2023/04/23 04:17:11;;;;;;;4.75;4.25;;;;;;;12.92;74.76;99103.84;10415876;28;20435;-72
2023/04/23 04:22:13;;;;;;;5.28;4.88;;;;;;;12.95;74.04;99108.97;10415412;28;20046;-73
2023/04/23 04:27:15;;;;;;;5.75;4.82;;;;;;;12.98;75.24;99111.44;10416179;28;20152;-72
2023/04/23 04:32:17;;;;;;;5.20;4.70;;;;;;;13.16;72.14;99117.47;10414869;28;20041;-72
2023/04/23 04:37:20;;;;;;;9.95;4.88;;;;;;;13.35;71.00;99118.13;10413922;28;20391;-73
2023/04/23 04:42:21;;;;;;;6.18;5.53;;;;;;;13.06;73.30;99118.94;10415423;28;20060;-72
2023/04/23 04:47:24;;;;;;;5.53;4.97;;;;;;;13.22;72.53;99114.50;10414006;28;20049;-72
2023/04/23 04:52:26;;;;;;;10.10;4.60;;;;;;;13.30;71.79;99114.06;10414750;28;20049;-72
2023/04/23 04:57:28;;;;;;;5.32;4.55;;;;;;;13.31;72.35;99113.13;10413817;28;20038;-72
2023/04/23 05:02:30;;;;;;;4.75;4.20;;;;;;;13.45;72.36;99115.81;10413077;28;20135;-73
2023/04/23 05:07:32;;;;;;;4.80;4.30;;;;;;;13.65;71.75;99127.00;10411992;28;20088;-72
2023/04/23 05:12:33;;;;;;;5.05;4.55;;;;;;;13.80;72.04;99116.38;10412069;28;20360;-73
2023/04/23 05:17:39;;;;;;;5.18;4.55;;;;;;;14.00;71.02;99128.41;10412061;28;20041;-73
2023/04/23 05:22:41;;;;;;;5.45;4.88;;;;;;;14.21;69.34;99120.09;10411874;28;20119;-73
2023/04/23 05:27:43;;;;;;;6.03;5.03;;;;;;;14.36;68.55;99127.94;10411566;28;20046;-73
2023/04/23 05:32:45;;;;;;;5.25;4.75;;;;;;;14.62;66.28;99136.94;10412077;28;20501;-73
2023/04/23 05:37:46;;;;;;;5.47;4.97;;;;;;;14.52;67.42;99130.53;10425611;22;20129;-77
2023/04/23 05:42:48;;;;;;;8.02;5.03;;;;;;;14.46;68.58;99133.50;10410057;28;20218;-76
2023/04/23 05:47:50;;;;;;;6.28;5.68;;;;;;;14.48;69.75;99129.03;10410414;28;20135;-76
2023/04/23 05:52:52;;;;;;;5.35;4.85;;;;;;;14.49;70.04;99141.28;10409670;28;20491;-76
2023/04/23 05:57:54;;;;;;;6.28;5.68;;;;;;;14.56;69.48;99132.00;10410025;28;20045;-77
2023/04/23 06:02:56;;;;;;;6.47;4.70;;;;;;;14.79;68.05;99130.59;10409991;28;20049;-77
2023/04/23 06:07:58;;;;;;;6.20;5.40;;;;;;;15.48;65.91;99131.41;10408922;28;20052;-78
2023/04/23 06:13:00;;;;;;;4.78;4.38;;;;;;;15.97;64.81;99132.59;10417727;28;20446;-76
2023/04/23 06:18:01;;;;;;;5.13;4.72;;;;;;;16.57;61.46;99135.44;10417539;28;20042;-76
2023/04/23 06:23:03;;;;;;;4.55;4.15;;;;;;;17.07;61.71;99138.94;10417625;28;20053;-76
2023/04/23 06:28:05;;;;;;;1.52;1.38;;;;;;;17.61;59.17;99133.16;10415952;28;20061;-77
2023/04/23 06:33:16;;;;;;;1.25;1.00;;;;;;;17.79;56.95;99148.72;10414974;28;20050;-76
2023/04/23 06:38:20;;;;;;;2.72;1.50;;;;;;;17.77;57.87;99150.66;10416331;28;20140;-77
2023/04/23 06:43:22;;;;;;;1.65;1.20;;;;;;;17.69;55.93;99155.69;10415026;28;20049;-76
2023/04/23 06:48:42;;;;;;;3.22;1.60;;;;;;;17.60;56.25;99150.09;10414931;28;20046;-76
2023/04/23 06:53:43;;;;;;;2.35;1.60;;;;;;;17.44;57.91;99154.00;10415866;28;20072;-75
2023/04/23 06:58:45;;;;;;;1.95;1.25;;;;;;;17.14;56.26;99164.09;10415332;28;20041;-77
2023/04/23 07:03:53;;;;;;;1.85;1.30;;;;;;;17.15;57.08;99159.66;10414875;28;20050;-77
2023/04/23 07:08:55;;;;;;;1.77;1.33;;;;;;;17.04;57.95;99165.72;10416937;28;20061;-76
2023/04/23 07:13:57;;;;;;;1.30;1.00;;;;;;;17.08;58.51;99167.19;10416380;28;20049;-77
2023/04/23 07:19:01;;;;;;;1.35;1.10;;;;;;;17.03;59.33;99172.00;10414560;28;20076;-76
2023/04/23 07:24:05;;;;;;;2.00;1.50;;;;;;;16.86;59.09;99182.97;10415394;28;20053;-76
2023/04/23 07:29:10;;;;;;;3.15;1.40;;;;;;;16.68;60.01;99173.63;10415399;28;20042;-76
2023/04/23 07:34:11;;;;;;;1.73;1.55;;;;;;;16.61;60.96;99176.72;10414886;28;20053;-77
2023/04/23 07:39:13;;;;;;;4.03;1.77;;;;;;;16.53;61.84;99183.53;10412662;28;20058;-76
2023/04/23 07:44:15;;;;;;;2.65;1.27;;;;;;;16.59;62.48;99175.97;10414312;28;20061;-76
2023/04/23 07:49:17;;;;;;;2.10;1.65;;;;;;;16.58;63.39;99178.72;10413857;28;20045;-77
2023/04/23 07:54:19;;;;;;;2.35;1.80;;;;;;;16.80;64.16;99183.41;10414001;28;20087;-77
2023/04/23 07:59:21;;;;;;;2.08;1.63;;;;;;;16.88;63.67;99181.06;10411679;28;20054;-76
2023/04/23 08:04:23;;;;;;;1.15;0.80;;;;;;;17.01;63.88;99181.88;10410998;28;20107;-77
2023/04/23 08:09:25;;;;;;;4.13;1.25;;;;;;;17.30;62.95;99184.22;10412198;28;20123;-78
2023/04/23 08:14:27;;;;;;;1.30;0.90;;;;;;;17.44;61.97;99185.88;10410757;28;20117;-78
2023/04/23 08:19:32;;;;;;;3.13;0.70;;;;;;;17.82;61.12;99183.06;10412897;28;20133;-78
2023/04/23 08:24:34;;;;;;;0.60;0.60;;;;;;;18.45;57.09;99183.56;10433047;28;20063;-76
2023/04/23 08:29:36;;;;;;;1.00;0.55;;;;;;;18.15;57.78;99188.50;10422495;28;20048;-77
2023/04/23 08:34:37;;;;;;;3.30;1.00;;;;;;;18.09;57.25;99183.63;10443502;28;20040;-78
2023/04/23 08:39:40;;;;;;;0.88;0.70;;;;;;;18.10;57.66;99193.28;10410871;28;20125;-76
2023/04/23 08:44:42;;;;;;;1.83;0.80;;;;;;;17.86;58.12;99198.66;10411471;28;20120;-78
2023/04/23 08:49:45;;;;;;;2.55;0.90;;;;;;;17.87;58.43;99202.16;10411117;28;20049;-77
2023/04/23 08:54:51;;;;;;;0.93;0.50;;;;;;;17.53;57.95;99214.41;10414357;28;20041;-77
2023/04/23 08:59:54;;;;;;;;;;;;;;;17.56;59.26;99217.69;10423227;28;20041;-76
2023/04/23 09:04:56;;;;;;;2.28;0.55;;;;;;;17.29;59.94;99215.25;10452503;28;19928;-77
2023/04/23 09:09:57;;;;;;;0.45;0.40;;;;;;;17.24;59.93;99214.75;10427705;28;20048;-76
2023/04/23 09:15:00;;;;;;;0.85;0.73;;;;;;;17.26;59.73;99223.44;10409609;28;20132;-75
2023/04/23 09:20:02;;;;;;;1.50;0.50;;;;;;;17.64;60.68;99217.16;10409952;28;20041;-75
2023/04/23 09:25:06;;;;;;;0.52;0.20;;;;;;;18.02;56.43;99221.47;10409935;28;20162;-75
2023/04/23 09:30:10;;;;;;;0.50;0.40;;;;;;;17.96;57.23;99230.72;10409618;28;20483;-75
2023/04/23 09:35:14;;;;;;;0.30;0.28;;;;;;;17.75;56.82;99227.88;10410363;28;20033;-77
2023/04/23 09:40:18;;;;;;;1.75;0.40;;;;;;;17.81;55.88;99229.22;10411028;28;20186;-77
2023/04/23 09:45:21;;;;;;;0.47;0.30;;;;;;;17.56;57.16;99238.13;10432319;28;20055;-77
2023/04/23 09:50:37;;;;;;;0.40;0.40;;;;;;;17.59;57.06;99222.81;10430961;28;20152;-78
2023/04/23 09:55:41;;;;;;;;;;;;;;;17.47;57.93;99228.16;10432625;28;20059;-77
2023/04/23 10:00:44;;;;;;;0.40;0.40;;;;;;;17.35;57.71;99225.47;10452140;28;19928;-76
2023/04/23 10:05:46;;;;;;;1.00;0.40;;;;;;;17.53;57.48;99231.25;10436884;28;20041;-77
2023/04/23 10:11:02;;;;;;;1.42;0.40;;;;;;;17.69;57.08;99228.28;10408273;28;20128;-77
2023/04/23 10:16:21;;;;;;;0.63;0.40;;;;;;;17.86;55.68;99225.25;10408435;28;20463;-77
2023/04/23 10:21:32;;;;;;;0.85;0.32;;;;;;;17.91;56.68;99214.28;10407089;28;20480;-77
2023/04/23 10:26:56;;;;;;;0.40;0.40;;;;;;;18.04;54.61;99217.69;10408965;28;20048;-78
2023/04/23 10:32:03;;;;;;;0.60;0.40;;;;;;;17.74;55.44;99215.53;10409593;28;20038;-78
2023/04/23 10:37:07;;;;;;;1.15;0.43;;;;;;;17.75;56.57;99216.38;10407518;28;20052;-78
2023/04/23 10:42:12;;;;;;;0.75;0.38;;;;;;;17.69;57.09;99214.16;10407505;28;20049;-79
2023/04/23 10:47:15;;;;;;;0.45;0.30;;;;;;;17.98;56.50;99214.69;10412025;28;20075;-77
2023/04/23 10:52:17;;;;;;;0.73;0.40;;;;;;;17.98;54.98;99212.84;10410010;28;20379;-80
2023/04/23 10:57:24;;;;;;;0.90;0.40;;;;;;;18.11;55.05;99208.31;10412337;28;20045;-77
2023/04/23 11:02:42;;;;;;;1.65;0.30;;;;;;;18.07;55.04;99217.47;10412728;28;20046;-77
2023/04/23 11:08:13;;;;;;;0.85;0.40;;;;;;;18.07;57.85;99225.47;10415223;28;20096;-78
2023/04/23 11:13:25;;;;;;;0.40;0.40;;;;;;;18.17;59.69;99228.25;10329212;28;20169;-76
2023/04/23 11:18:27;;;;;;;0.57;0.40;;;;;;;17.96;61.29;99217.44;10328765;28;20473;-76
2023/04/23 11:23:32;;;;;;;0.50;0.45;;;;;;;17.96;60.34;99217.44;10328624;28;20153;-75
2023/04/23 11:28:35;;;;;;;0.60;0.55;;;;;;;17.73;60.44;99228.91;10327939;28;20108;-75
2023/04/23 11:33:37;;;;;;;0.77;0.50;;;;;;;17.81;60.54;99235.38;10312038;28;20467;-75
2023/04/23 11:38:40;;;;;;;1.45;0.50;;;;;;;18.02;60.84;99224.13;10358516;22;20069;-71
2023/04/23 11:43:42;;;;;;;0.43;0.43;;;;;;;18.72;59.35;99213.38;10414109;28;20046;-72
2023/04/23 11:48:43;;;;;;;1.15;0.40;;;;;;;19.46;56.05;99218.16;10412951;28;20053;-72
2023/04/23 11:53:48;;;;;;;0.32;0.32;;;;;;;18.99;56.34;99229.03;10413232;28;20179;-72
2023/04/23 11:59:02;;;;;;;1.02;0.60;;;;;;;18.94;55.45;99228.50;10411011;28;20049;-72
2023/04/23 12:04:15;;;;;;;1.02;0.65;;;;;;;18.53;57.15;99219.25;10414099;28;20120;-71
2023/04/23 12:09:20;;;;;;;0.85;0.63;;;;;;;18.18;58.43;99216.66;10411660;28;20053;-71
2023/04/23 12:14:27;;;;;;;0.50;0.50;;;;;;;18.00;58.88;99210.91;10410838;28;20056;-72
2023/04/23 12:19:30;;;;;;;0.82;0.50;;;;;;;18.05;58.68;99218.56;10411776;28;20191;-72
2023/04/23 12:24:47;;;;;;;1.10;0.45;;;;;;;17.89;59.10;99222.38;10413395;28;20543;-73
2023/04/23 12:29:58;;;;;;;0.90;0.75;;;;;;;17.88;59.02;99225.13;10410064;28;20102;-73
2023/04/23 12:35:00;;;;;;;0.85;0.45;;;;;;;17.87;61.08;99231.41;10414836;28;20106;-73
2023/04/23 12:40:05;;;;;;;0.70;0.40;;;;;;;18.36;59.81;99217.91;10413137;28;20042;-72
2023/04/23 12:45:08;;;;;;;0.75;0.40;;;;;;;18.90;56.38;99205.75;10413747;28;20136;-72
2023/04/23 12:50:11;;;;;;;0.52;0.40;;;;;;;19.59;53.38;99197.53;10412278;28;20091;-72
2023/04/23 12:55:12;;;;;;;0.57;0.40;;;;;;;19.85;52.56;99198.91;10412686;28;20041;-73
2023/04/23 13:00:14;;;;;;;0.38;0.38;;;;;;;19.57;49.85;99195.00;10410762;28;20455;-73
2023/04/23 13:05:17;;;;;;;0.68;0.40;;;;;;;19.76;48.53;99183.69;10412849;28;20050;-74
2023/04/23 13:10:19;;;;;;;0.77;0.38;;;;;;;20.02;49.20;99178.00;10411723;28;20049;-72
2023/04/23 13:15:20;;;;;;;0.50;0.50;;;;;;;20.20;51.09;99167.59;10410892;28;20045;-73
2023/04/23 13:20:24;;;;;;;0.30;0.30;;;;;;;20.27;50.06;99169.56;10409168;28;20050;-72
2023/04/23 13:25:25;;;;;;;0.65;0.40;;;;;;;19.78;52.07;99157.72;10409602;28;20084;-72
2023/04/23 13:30:27;;;;;;;0.68;0.40;;;;;;;20.27;51.09;99150.06;10412068;28;20052;-71
2023/04/23 13:35:29;;;;;;;0.63;0.40;;;;;;;19.67;51.93;99138.28;10410012;28;20055;-72
2023/04/23 13:40:31;;;;;;;0.47;0.40;;;;;;;19.58;51.42;99127.38;10410587;28;20129;-71
2023/04/23 13:45:32;;;;;;;0.70;0.30;;;;;;;19.41;51.93;99133.25;10409582;28;20041;-72
2023/04/23 13:50:34;;;;;;;0.30;0.30;;;;;;;19.16;53.27;99119.28;10410836;28;20182;-71
2023/04/23 13:55:37;;;;;;;0.40;0.40;;;;;;;19.38;53.33;99112.19;10410503;28;20141;-72
2023/04/23 14:00:41;;;;;;;0.60;0.40;;;;;;;19.57;51.41;99107.03;10408364;28;20053;-71
2023/04/23 14:05:43;;;;;;;0.30;0.30;;;;;;;19.29;52.46;99104.97;10410883;28;20071;-71
2023/04/23 14:10:45;;;;;;;0.90;0.40;;;;;;;19.44;52.32;99098.38;10410976;28;20041;-70
2023/04/23 14:15:47;;;;;;;0.47;0.47;;;;;;;19.55;52.03;99086.81;10410856;28;20518;-72
2023/04/23 14:20:50;;;;;;;0.47;0.43;;;;;;;19.69;51.23;99081.19;10411344;28;20053;-71
2023/04/23 14:26:27;;;;;;;0.85;0.30;;;;;;;19.69;49.64;99091.84;10409426;28;20065;-72
2023/04/23 14:31:48;;;;;;;0.57;0.40;;;;;;;19.47;50.21;99092.75;10418168;28;20095;-72
2023/04/23 14:36:51;;;;;;;0.90;0.40;;;;;;;19.23;51.55;99081.50;10420838;28;20045;-73
2023/04/23 14:41:55;;;;;;;0.50;0.47;;;;;;;19.04;51.07;99075.03;10420398;28;20095;-72
2023/04/23 14:46:57;;;;;;;0.68;0.50;;;;;;;18.90;51.99;99068.16;10422120;28;20117;-72
2023/04/23 14:51:59;;;;;;;0.40;0.40;;;;;;;18.56;54.12;99061.16;10416232;28;20151;-72
2023/04/23 14:57:01;;;;;;;0.70;0.50;;;;;;;18.36;54.37;99060.09;10418507;28;20115;-71
2023/04/23 15:02:03;;;;;;;0.55;0.50;;;;;;;18.33;54.28;99055.03;10419139;28;20144;-73
2023/04/23 15:07:05;;;;;;;0.40;0.40;;;;;;;18.59;52.70;99056.47;10416862;28;20095;-71
2023/04/23 15:12:46;;;;;;;0.32;0.32;;;;;;;18.36;53.35;99052.09;10416720;28;20064;-72
2023/04/23 15:17:48;;;;;;;0.60;0.50;;;;;;;18.43;54.02;99045.34;10415422;28;20037;-72
2023/04/23 15:22:53;;;;;;;0.50;0.50;;;;;;;18.69;51.27;99048.59;10416249;28;20501;-71
2023/04/23 15:27:56;;;;;;;0.40;0.40;;;;;;;18.50;53.43;99043.84;10421196;28;20053;-72
2023/04/23 15:32:58;;;;;;;0.73;0.50;;;;;;;18.32;54.08;99040.84;10421330;28;20135;-72
2023/04/23 15:38:00;;;;;;;0.82;0.70;;;;;;;18.11;55.55;99035.44;10415244;28;20514;-73
2023/04/23 15:43:02;;;;;;;1.40;0.80;;;;;;;18.25;58.73;99044.16;10414285;28;20072;-72
2023/04/23 15:48:04;;;;;;;1.85;0.68;;;;;;;17.70;67.34;99035.94;10417343;28;20086;-71
2023/04/23 15:53:06;;;;;;;0.70;0.70;;;;;;;17.69;68.80;99015.66;10412772;28;20050;-71
2023/04/23 15:58:07;;;;;;;1.25;0.70;;;;;;;17.83;69.73;99017.28;10412205;28;20045;-70
2023/04/23 16:03:09;;;;;;;0.98;0.98;;;;;;;17.79;68.79;99016.66;10411591;28;20061;-72
2023/04/23 16:08:12;;;;;;;0.60;0.55;;;;;;;17.88;63.82;99015.97;10413026;28;20041;-71
2023/04/23 16:13:14;;;;;;;0.43;0.43;;;;;;;17.46;65.83;99003.31;10421447;28;20554;-71
2023/04/23 16:18:16;;;;;;;0.68;0.50;;;;;;;17.76;65.42;98992.16;10418673;28;20475;-70
2023/04/23 16:23:18;;;;;;;0.70;0.50;;;;;;;17.50;65.48;98980.84;10422106;28;20095;-71
2023/04/23 16:28:20;;;;;;;0.60;0.57;;;;;;;17.36;65.94;98977.44;10452376;28;20425;-71
2023/04/23 16:33:22;;;;;;;0.60;0.60;;;;;;;17.57;66.26;98977.59;10428150;28;20388;-72
2023/04/23 16:38:24;;;;;;;1.27;0.60;;;;;;;17.12;63.11;98966.03;10409629;28;20120;-71
2023/04/23 16:43:26;;;;;;;0.50;0.50;;;;;;;17.19;64.66;98958.44;10410048;28;20044;-71
2023/04/23 16:48:28;;;;;;;0.88;0.70;;;;;;;17.20;65.22;98954.81;10409148;28;20233;-71
2023/04/23 16:53:30;;;;;;;0.77;0.60;;;;;;;17.33;64.18;98958.22;10410539;28;20053;-71
2023/04/23 16:58:34;;;;;;;0.70;0.60;;;;;;;17.24;66.32;98948.31;10408086;28;20056;-71
2023/04/23 17:03:35;;;;;;;0.88;0.70;;;;;;;17.14;67.06;98943.72;10407707;28;20049;-71
2023/04/23 17:08:38;;;;;;;1.33;0.98;;;;;;;17.10;67.42;98944.06;10409690;28;20037;-71
2023/04/23 17:13:42;;;;;;;1.63;0.80;;;;;;;17.20;67.50;98929.09;10408693;28;20129;-71
2023/04/23 17:18:44;;;;;;;1.42;1.00;;;;;;;17.12;68.21;98923.53;10412276;28;20469;-71
2023/04/23 17:23:46;;;;;;;1.35;1.00;;;;;;;17.25;67.63;98929.59;10409483;28;20151;-71
2023/04/23 17:28:49;;;;;;;1.85;1.23;;;;;;;17.11;68.65;98914.72;10409872;28;20375;-70
2023/04/23 17:33:52;;;;;;;2.10;1.10;;;;;;;17.07;68.93;98902.66;10410352;28;20482;-70
2023/04/23 17:38:54;;;;;;;1.73;1.05;;;;;;;17.09;67.28;98905.19;10434512;22;20219;-73
2023/04/23 17:43:55;;;;;;;2.65;2.38;;;;;;;16.87;68.68;98903.34;10368901;28;20113;-73
2023/04/23 17:48:57;;;;;;;4.82;4.35;;;;;;;16.63;70.00;98904.16;10370161;28;20509;-74
2023/04/23 17:53:59;;;;;;;6.32;5.35;;;;;;;16.60;71.02;98907.06;10369053;28;20144;-73
2023/04/23 17:59:02;;;;;;;8.10;6.85;;;;;;;16.31;71.29;98913.66;10367225;28;20065;-73
2023/04/23 18:04:04;;;;;;;6.40;5.90;;;;;;;16.27;72.74;98923.63;10368668;28;20096;-73
2023/04/23 18:09:07;;;;;;;6.72;5.35;;;;;;;16.06;72.40;98925.19;10368887;28;20479;-72
2023/04/23 18:14:10;;;;;;;5.53;5.13;;;;;;;15.91;73.54;98924.50;10368700;28;20512;-73
2023/04/23 18:19:11;;;;;;;4.20;3.42;;;;;;;15.79;73.75;98935.97;10367158;28;20042;-73
2023/04/23 18:24:17;;;;;;;3.92;3.63;;;;;;;15.57;75.18;98942.72;10366391;28;20056;-73
2023/04/23 18:29:19;;;;;;;4.10;3.42;;;;;;;15.51;75.53;98940.50;10367215;28;20104;-73
2023/04/23 18:34:23;;;;;;;3.22;3.03;;;;;;;15.45;76.88;98940.94;10366914;28;20064;-73
2023/04/23 18:39:25;;;;;;;3.40;3.03;;;;;;;15.29;78.00;98945.59;10368927;28;20048;-73
2023/04/23 18:44:31;;;;;;;2.90;2.20;;;;;;;15.02;79.89;98950.97;10366777;28;20042;-73
2023/04/23 18:49:38;;;;;;;2.50;2.30;;;;;;;15.18;78.95;98974.56;10368580;28;20487;-73
2023/04/23 18:54:42;;;;;;;3.38;2.53;;;;;;;14.96;81.09;98978.66;10368956;28;20046;-72
2023/04/23 18:59:46;;;;;;;2.90;2.70;;;;;;;14.73;83.55;98980.19;10368303;28;20384;-77
2023/04/23 19:04:48;;;;;;;2.80;2.60;;;;;;;14.73;83.01;98980.19;10371514;28;20053;-78
2023/04/23 19:09:50;;;;;;;2.60;2.40;;;;;;;14.44;84.47;98968.84;10368335;28;20049;-77
2023/04/23 19:14:52;;;;;;;2.45;2.25;;;;;;;14.52;83.98;98969.22;10368819;28;20127;-77
2023/04/23 19:19:54;;;;;;;3.25;2.95;;;;;;;14.60;83.77;98960.78;10381011;28;20041;-77
2023/04/23 19:24:55;;;;;;;2.67;2.40;;;;;;;14.44;84.64;98947.69;10391213;28;20130;-77
2023/04/23 19:29:59;;;;;;;3.15;2.85;;;;;;;14.43;85.81;98953.06;10376229;28;20061;-76
2023/04/23 19:35:03;;;;;;;2.45;2.25;;;;;;;14.29;86.63;98941.56;10376686;28;20049;-77
2023/04/23 19:40:06;;;;;;;3.67;2.70;;;;;;;13.94;88.23;98935.88;10381988;28;20141;-78
2023/04/23 19:45:07;;;;;;;3.53;3.22;;;;;;;13.83;90.10;98935.72;10385156;28;20101;-79
2023/04/23 19:50:09;;;;;;;2.70;2.50;;;;;;;13.71;89.87;98925.94;10382080;28;20042;-76
2023/04/23 19:55:11;;;;;;;3.42;3.20;;;;;;;13.86;88.75;98923.19;10373190;28;20077;-77
2023/04/23 20:00:13;;;;;;;3.10;2.90;;;;;;;14.00;88.34;98916.19;10376252;28;20116;-77
2023/04/23 20:05:15;;;;;;;3.33;2.30;;;;;;;13.57;91.01;98913.59;10374786;28;20084;-77
2023/04/23 20:10:17;;;;;;;3.30;3.00;;;;;;;13.43;91.73;98909.16;10380018;28;20065;-77
2023/04/23 20:15:23;;;;;;;2.97;2.78;;;;;;;13.21;93.34;98900.81;10376241;28;20057;-77
2023/04/23 20:20:24;;;;;;;3.42;3.22;;;;;;;13.03;95.32;98894.84;10374799;28;20145;-77
2023/04/23 20:25:26;;;;;;;3.75;3.45;;;;;;;13.03;95.13;98887.78;10381097;28;20456;-78
2023/04/23 20:30:28;;;;;;;3.95;3.63;;;;;;;13.16;95.45;98884.41;10386918;28;20407;-78
2023/04/23 20:35:30;;;;;;;4.18;3.88;;;;;;;12.97;96.26;98880.25;10387304;28;20046;-79
2023/04/23 20:40:33;;;;;;;3.97;3.67;;;;;;;12.79;97.51;98878.69;10375090;28;20069;-76
2023/04/23 20:45:35;;;;;;;4.03;3.72;;;;;;;12.85;97.96;98873.06;10373117;28;20045;-76
2023/04/23 20:50:37;;;;;;;4.30;4.00;;;;;;;12.95;96.83;98858.38;10373090;28;20329;-78
2023/04/23 20:55:39;;;;;;;4.35;3.95;;;;;;;12.87;97.17;98858.00;10373923;28;20045;-78
2023/04/23 21:00:41;;;;;;;3.33;3.13;;;;;;;12.75;96.69;98859.59;10361257;28;20400;-77
2023/04/23 21:05:43;;;;;;;3.97;3.60;;;;;;;12.72;97.10;98861.56;10376006;28;20125;-78
2023/04/23 21:10:45;;;;;;;4.28;3.97;;;;;;;12.80;96.46;98868.06;10372971;28;20156;-77
2023/04/23 21:15:47;;;;;;;3.78;3.55;;;;;;;12.92;95.34;98857.72;10373653;28;20433;-77
2023/04/23 21:20:49;;;;;;;4.18;3.88;;;;;;;12.61;97.74;98865.66;10373441;28;20038;-77
2023/04/23 21:25:51;;;;;;;4.25;3.95;;;;;;;12.60;97.56;98871.03;10373252;28;20122;-77
2023/04/23 21:30:55;;;;;;;4.47;4.18;;;;;;;12.56;98.11;98866.88;10373975;28;20126;-77
2023/04/23 21:35:57;;;;;;;4.43;4.07;;;;;;;12.40;98.79;98872.19;10377090;28;20411;-77
2023/04/23 21:40:59;;;;;;;4.55;3.95;;;;;;;12.39;99.24;98870.47;10371611;28;20133;-77
2023/04/23 21:46:01;;;;;;;3.47;3.22;;;;;;;12.26;99.34;98858.94;10367990;28;20050;-78
2023/04/23 21:51:03;;;;;;;3.90;3.60;;;;;;;12.07;100.00;98859.16;10373064;28;20041;-76
2023/04/23 21:56:05;;;;;;;4.57;4.28;;;;;;;11.93;100.00;98845.91;10370654;28;20046;-77
2023/04/23 22:01:07;;;;;;;4.28;3.90;;;;;;;11.87;100.00;98841.84;10373459;28;20134;-77
2023/04/23 22:06:09;;;;;;;5.60;3.67;;;;;;;11.77;100.00;98844.09;10369002;28;20077;-77
2023/04/23 22:11:11;;;;;;;4.00;3.70;;;;;;;11.70;100.00;98831.38;10370504;28;20054;-77
2023/04/23 22:16:14;;;;;;;5.65;5.25;;;;;;;11.63;100.00;98834.31;10368402;28;20152;-77
2023/04/23 22:21:29;;;;;;;5.13;4.72;;;;;;;11.48;100.00;98823.81;10368714;28;20034;-77
2023/04/23 22:26:32;;;;;;;5.38;5.07;;;;;;;11.33;100.00;98817.56;10369767;28;20057;-77
2023/04/23 22:31:34;;;;;;;5.20;4.90;;;;;;;11.29;100.00;98808.19;10368788;28;20108;-77
2023/04/23 22:36:36;;;;;;;5.50;5.10;;;;;;;11.26;100.00;98803.06;10368590;28;20532;-77
2023/04/23 22:41:39;;;;;;;5.55;5.15;;;;;;;11.31;100.00;98793.16;10367418;28;20050;-77
2023/04/23 22:46:41;;;;;;;5.78;5.38;;;;;;;11.26;100.00;98782.88;10368150;28;20050;-77
2023/04/23 22:51:43;;;;;;;5.90;5.45;;;;;;;11.36;100.00;98783.22;10370142;28;20108;-77
2023/04/23 22:56:45;;;;;;;7.18;6.68;;;;;;;11.32;100.00;98779.06;10377442;28;20049;-77
2023/04/23 23:01:47;;;;;;;7.40;6.78;;;;;;;11.42;100.00;98767.13;10374974;28;20220;-77
2023/04/23 23:06:49;;;;;;;8.65;7.97;;;;;;;11.58;100.00;98762.66;10376179;28;20068;-77
2023/04/23 23:11:50;;;;;;;7.47;6.80;;;;;;;11.59;100.00;98759.09;10376679;28;20512;-78
2023/04/23 23:16:52;;;;;;;7.18;6.57;;;;;;;11.43;100.00;98755.66;10375277;28;20042;-77
2023/04/23 23:21:54;;;;;;;7.07;6.68;;;;;;;11.36;100.00;98749.84;10376030;28;20530;-76
2023/04/23 23:26:56;;;;;;;8.15;7.47;;;;;;;11.50;100.00;98728.03;10375872;28;20070;-77
2023/04/23 23:31:58;;;;;;;5.70;5.30;;;;;;;11.72;100.00;98732.94;10376427;28;20400;-76